Antilla — PJJI — position and weather

sailwx.info

Track history (hours):
 
Tides and Currents Weather Stations Pressure Air Temp Water Temp Dewpoint Dewpoint Depression Visibility Wind Speed Wind Dir Waves Ship Positions

Antilla

Last reported at 2015-Jan-12 05:33 UTC. Time now 2015-Jan-27 01:13 UTC.
Position N 38°21' W 010°56'.
Warning: this ship's position is 14 days out of date.

Length 105 m; beam 16 m.

Type: Cargo ship. MMSI: 306511000.

Date/timePositionNaut miles runAvg speedWind from/ knotsBaromVisibWave heightAir tempDewpointWater temp
2015-Jan-12 05:33N 38°21' W 010°56'1212.3
2015-Jan-12 04:33N 38°10' W 011°02'1312.2
2015-Jan-12 03:30N 37°58' W 011°07'2412.0
2015-Jan-12 01:33N 37°35' W 011°17'1212.1
2015-Jan-12 00:32N 37°24' W 011°22'1211.9
2015-Jan-11 23:32N 37°13' W 011°27'1211.8
2015-Jan-11 22:33N 37°02' W 011°33'1412.1
2015-Jan-11 21:22N 36°48' W 011°39'1012.3
2015-Jan-11 20:33N 36°39' W 011°43'1312.3
2015-Jan-11 19:28N 36°26' W 011°49'2412.4
2015-Jan-11 17:33N 36°04' W 011°59'17212.3
2015-Jan-11 03:33N 33°23' W 013°10'  
2015-Jan-04 03:23N 10°31' W 016°51'3311.6
2015-Jan-04 00:33N 10°07' W 016°29'1211.6
2015-Jan-03 23:29N 09°58' W 016°20'2211.2
2015-Jan-03 21:32N 09°40' W 016°06'11811.7
2015-Jan-03 11:24N 08°12' W 014°47'1011.7
2015-Jan-03 10:33N 08°05' W 014°40'1211.6
2015-Jan-03 09:33N 07°56' W 014°32'1311.8
2015-Jan-03 08:29N 07°47' W 014°24'  
Track history (hours):
 
Tides and Currents Weather Stations Pressure Air Temp Water Temp Dewpoint Dewpoint Depression Visibility Wind Speed Wind Dir Waves Ship Positions

Antilla

Last reported at 2015-Jan-12 05:33 UTC. Time now 2015-Jan-27 01:13 UTC.
Position N 38°21' W 010°56'.
Warning: this ship's position is 14 days out of date.

Length 105 m; beam 16 m.

Type: Cargo ship. MMSI: 306511000.

Date/timePositionNaut miles runAvg speedWind from/ knotsBaromVisibWave heightAir tempDewpointWater temp
2015-Jan-12 05:33N 38°21' W 010°56'1212.3
2015-Jan-12 04:33N 38°10' W 011°02'1312.2
2015-Jan-12 03:30N 37°58' W 011°07'2412.0
2015-Jan-12 01:33N 37°35' W 011°17'1212.1
2015-Jan-12 00:32N 37°24' W 011°22'1211.9
2015-Jan-11 23:32N 37°13' W 011°27'1211.8
2015-Jan-11 22:33N 37°02' W 011°33'1412.1
2015-Jan-11 21:22N 36°48' W 011°39'1012.3
2015-Jan-11 20:33N 36°39' W 011°43'1312.3
2015-Jan-11 19:28N 36°26' W 011°49'2412.4
2015-Jan-11 17:33N 36°04' W 011°59'17212.3
2015-Jan-11 03:33N 33°23' W 013°10'  
2015-Jan-04 03:23N 10°31' W 016°51'3311.6
2015-Jan-04 00:33N 10°07' W 016°29'1211.6
2015-Jan-03 23:29N 09°58' W 016°20'2211.2
2015-Jan-03 21:32N 09°40' W 016°06'11811.7
2015-Jan-03 11:24N 08°12' W 014°47'1011.7
2015-Jan-03 10:33N 08°05' W 014°40'1211.6
2015-Jan-03 09:33N 07°56' W 014°32'1311.8
2015-Jan-03 08:29N 07°47' W 014°24'  

Dump ship's entire track history